首页
METAR-TAF:

METAR-TAF

机场 :

麦卡伦国际机场

拉斯维加斯, 内华达州, 美国

纬度: 36-04-44N, 经度: 115-09-19W, 海拔: 663米

当前天气观测

该预报发布于23分钟前的16:56 UTC
静风
温度 11°C
湿度 50%
气压 1020 hPa
能見度: 16.1公里
少量云层高于20000英尺
多云层高于25000英尺

METAR: KLAS 241656Z 00000KT 10SM FEW200 BKN250 11/01 A3011 RMK AO2 SLP193 T01110006

时间: 09:19 (17:19 UTC)

预报

该预报发布于2小时和36分钟前的14:43 UTC
预报有效从24日的 15点(UTC)到 25日的 18点(UTC)
风速3节,风向多变
能見度: 10公里
少量云层高于15000英尺
阴天层高于25000英尺
从 25日的 0300点(UTC)
风速5节,风向西南
能見度: 10公里
散云层高于25000英尺
从 25日的 0600点(UTC)
风速7节,风向西北
能見度: 10公里
散云层高于25000英尺
从 25日的 1300点(UTC)
风速5节,风向多变
能見度: 10公里
散云层高于15000英尺
多云层高于20000英尺

TAF: KLAS 241443Z 2415/2518 VRB03KT P6SM FEW150 OVC250 FM250300 23005KT P6SM SCT250 FM250600 32007KT P6SM SCT250 FM251300 VRB05KT P6SM SCT150 BKN200

超过4000个机场的气象观测和天气预报(METAR&TAF报告)。

可查询的气象台以黄色和红色小点在地图上表示。

将鼠标移到小点上方,可查看气象台名称。

然后点击查看天气观测和预报。

如需切换地图:点击带黑十字的绿色按钮放大地图;点击带横线的绿色按钮缩小地图;或者点击绿色箭头查看邻近地区的地图。


METAR-TAF: